Terminal Aerodrome Forecast
Issued by NWS

Home | Current Version | Previous Version | Text Only | Print | Product List | Glossary On
Versions: 1 2 3 4 5 6 7 8 9 10 11 12 13 14 15 16 17 18 19 20 21 22 23 24 25 26 27 28 29 30 31 32 33 34 35 36 37 38 39 40 41 42 43 44 45 46 47 48 49 50
000
FTUS44 KHGX 270743 AAA
TAFIAH
TAF AMD
KIAH 270743Z 2708/2812 12008KT P6SM VCTS FEW030 SCT060CB BKN150
      TEMPO 2710/2712 VRB25G35KT 1SM +TSRA OVC025CB
     FM271300 17010G20KT P6SM VCSH SCT020 BKN030
     FM271800 16015G25KT P6SM VCTS SCT020 BKN035CB
     FM280100 15010KT P6SM SCT015 BKN250=

USA.gov is the U.S. government's official web portal to all federal, state and local government web resources and services.